Tropical Cyclones
[Index]
Main Index Home Page Stock Weather Photos Extreme Storms Discussion Storm News and Storm Chasing Reports Tropical Cyclones / Hurricanes / Typhoons Weather Data and Links Wild Fires / Bushfires Weather Observation Techniques Weather Picture Catalogue Tornado Pictures and Reports Stock Video Footage and DVDs for sale
Season 1950-1951 Tropical Cyclone 195109 Track Map
Season 1950-1951 Summaries: [BoM-AU] [JTWC-AU] [JTWC-SIO] [JTWC-SPAC] [JTWC-SH]
<<- Previous TC | JTWC 1950-1951 Season | Next TC ->>

click for intensity scale information  Lat/long Grid: Show Hide

 Date Labels: Show Hide

Joint Typhoon Warning Centre Cyclone Data

Name: 195109
Number: 138 / 5109

09 Jan 1951 00:00 UTC to 19 Jan 1951 18:00 UTC

    date/time    lat    long     hPa   cat  kts
1951-01-09 00   16.5   140.2                              
1951-01-09 06   16.9   140.8                              
1951-01-09 12   17.4   141.3                              
1951-01-09 18   17.7   141.7                              
1951-01-10 00   18.1   142.1                              
1951-01-10 06   18.8   142.9                              
1951-01-10 12   19.8   143.6                              
1951-01-10 18   20.9   143.9                              
1951-01-11 00   21.8   143.9                              
1951-01-11 06   22.3   143.6                              
1951-01-11 12   22.6   143.1                              
1951-01-11 18   22.9   142.5                              
1951-01-12 00   23.0   141.9                              
1951-01-12 06   22.9   141.4                              
1951-01-12 12   22.7   140.8                              
1951-01-12 18   22.5   140.4                              
1951-01-13 00   22.0   140.0                              
1951-01-13 06   21.2   139.2                              
1951-01-13 12   20.5   138.1                              
1951-01-13 18   19.7   136.7                              
1951-01-14 00   19.1   135.6                              
1951-01-14 06   18.9   134.9                              
1951-01-14 12   18.6   134.2                              
1951-01-14 18   18.3   133.5                              
1951-01-15 00   17.9   132.9                              
1951-01-15 06   17.6   132.5                              
1951-01-15 12   17.2   132.4                              
1951-01-15 18   16.8   132.5                              
1951-01-16 00   16.3   133.2                              
1951-01-16 06   16.2   134.3                              
1951-01-16 12   16.1   135.4                              
1951-01-16 18   16.1   136.4                              
1951-01-17 00   16.1   137.1                              
1951-01-17 06   16.2   137.4                              
1951-01-17 12   16.2   137.6                              
1951-01-17 18   16.3   137.9                              
1951-01-18 00   16.4   138.2                              
1951-01-18 06   16.6   139.5                              
1951-01-18 12   17.0   140.4                              
1951-01-18 18   17.7   140.6                              
1951-01-19 00   18.6   140.7                              
1951-01-19 06   19.6   140.7                              
1951-01-19 12   20.5   140.7                              
1951-01-19 18   21.2   141.7                              
Winds are 1-min average.

Tropical cyclone tracks developed by Michael Bath using data from the Joint Typhoon Warning Centre Best Tracks and Google Maps.


[Australian Severe Weather index] [Copyright Notice] [Email Contacts] [Search This Site] [Privacy Policy]
Document: tropical_cyclone_195109.htm Updated: 18 September 2016